Billinge, United Kingdom
Current Conditions -  °F | °C
As of 2:20 PM on Wednesday 28 Jan 2015 (Local Time) from EGGP Reporting Station
Rain Showers Rain Showers  
Wind Chill: 28°   Ceiling: Unl
Heat Index: 41°   Visibility: 6mi
Dew Point: 34°   Wind: 39mph
Humidity: 76%   Direction: 270°W
Pressure: 29.47"   Gusts: 55mph
Location:  53.5°N, 2.71°W
Report Text: EGGP 281420Z 27034G48KT 9999 VCSH FEW020 SCT033 05/01 Q0998
Loading
Personal Weather Stations






























Interactive Weather Map New forecast layout! Learn more

10-Day Weather Forecast

Advertisements
Track Severe Weather on mobile